createdAt,value
2018-01-06T00:01:48.113Z,98785.05
2018-01-06T00:04:50.085Z,98781.78
2018-01-06T00:07:51.387Z,98783.41
2018-01-06T00:10:52.635Z,98794.95
2018-01-06T00:13:53.921Z,98789.95
2018-01-06T00:16:55.892Z,98798.14
2018-01-06T00:19:57.141Z,98792.33
2018-01-06T00:22:58.385Z,98788.00
2018-01-06T00:25:59.633Z,98792.41
2018-01-06T00:29:00.885Z,98805.37
2018-01-06T00:32:02.124Z,98801.56
2018-01-06T00:35:03.416Z,98808.73
2018-01-06T00:38:04.688Z,98813.44
2018-01-06T00:41:05.940Z,98807.06
2018-01-06T00:44:07.179Z,98810.70
2018-01-06T00:47:08.455Z,98806.72
2018-01-06T00:50:10.441Z,98807.97
2018-01-06T00:53:11.656Z,98803.80
2018-01-06T00:56:12.929Z,98807.40
2018-01-06T00:59:14.168Z,98809.03
2018-01-06T01:02:16.183Z,98805.97
2018-01-06T01:05:17.424Z,98801.77
2018-01-06T01:08:18.678Z,98798.12
2018-01-06T01:11:19.944Z,98801.34
2018-01-06T01:14:21.173Z,98809.94
2018-01-06T01:17:23.177Z,98812.14
2018-01-06T01:20:24.407Z,98804.48
2018-01-06T01:23:25.644Z,98808.05
2018-01-06T01:26:26.883Z,98821.42
2018-01-06T01:29:28.137Z,98817.86
2018-01-06T01:32:29.401Z,98824.87
2018-01-06T01:35:30.617Z,98827.89
2018-01-06T01:38:31.865Z,98832.95
2018-01-06T01:41:33.108Z,98826.08
2018-01-06T01:44:34.349Z,98832.77
2018-01-06T01:47:35.583Z,98843.12
2018-01-06T01:50:36.835Z,98845.48
2018-01-06T01:53:38.081Z,98849.00
2018-01-06T01:56:39.355Z,98849.59
2018-01-06T01:59:40.603Z,98847.17
2018-01-06T02:02:41.817Z,98848.91
2018-01-06T02:05:43.054Z,98849.66
2018-01-06T02:08:45.000Z,98845.03
2018-01-06T02:11:46.268Z,98860.84
2018-01-06T02:14:48.272Z,98863.50
2018-01-06T02:17:49.528Z,98869.92
2018-01-06T02:20:50.799Z,98862.73
2018-01-06T02:23:52.047Z,98867.20
2018-01-06T02:26:53.309Z,98881.14
2018-01-06T02:29:55.312Z,98884.39
2018-01-06T02:32:56.553Z,98874.96
2018-01-06T02:35:57.800Z,98879.70
2018-01-06T02:38:59.054Z,98876.48
2018-01-06T02:42:00.368Z,98868.43
2018-01-06T02:45:03.208Z,98876.93
2018-01-06T02:48:04.468Z,98872.52
2018-01-06T02:51:05.700Z,98889.44
2018-01-06T02:54:06.956Z,98887.03
2018-01-06T02:57:08.256Z,98887.81
2018-01-06T03:00:10.220Z,98890.41
2018-01-06T03:03:12.199Z,98895.39
2018-01-06T03:06:13.417Z,98888.41
2018-01-06T03:09:14.676Z,98886.13
2018-01-06T03:12:16.650Z,98888.64
2018-01-06T03:15:18.672Z,98898.63
2018-01-06T03:18:19.920Z,98900.16
2018-01-06T03:21:21.133Z,98891.23
2018-01-06T03:24:22.401Z,98889.42
2018-01-06T03:27:23.632Z,98899.62
2018-01-06T03:30:24.889Z,98893.89
2018-01-06T03:33:26.131Z,98894.17
2018-01-06T03:36:27.390Z,98891.88
2018-01-06T03:39:28.639Z,98890.86
2018-01-06T03:42:29.861Z,98892.02
2018-01-06T03:45:31.111Z,98892.39
2018-01-06T03:48:32.337Z,98897.24
2018-01-06T03:51:34.341Z,98906.44
2018-01-06T03:54:35.572Z,98901.59
2018-01-06T03:57:36.852Z,98899.95
2018-01-06T04:00:38.083Z,98896.03
2018-01-06T04:03:39.312Z,98902.66
2018-01-06T04:06:40.581Z,98905.80
2018-01-06T04:09:41.805Z,98903.72
2018-01-06T04:12:43.473Z,98899.33
2018-01-06T04:18:53.349Z,98892.20
2018-01-06T04:21:54.990Z,98904.22
2018-01-06T04:24:56.303Z,98908.01
2018-01-06T04:27:57.569Z,98892.84
2018-01-06T04:30:59.553Z,98908.44
2018-01-06T04:34:00.898Z,98904.47
2018-01-06T04:37:02.112Z,98909.33
2018-01-06T04:40:03.360Z,98910.28
2018-01-06T04:43:04.604Z,98908.89
2018-01-06T04:46:05.867Z,98922.69
2018-01-06T04:49:07.821Z,98929.54
2018-01-06T04:52:09.836Z,98938.51
2018-01-06T04:55:11.083Z,98935.66
2018-01-06T04:58:12.352Z,98925.52
2018-01-06T05:01:13.646Z,98937.06
2018-01-06T05:04:15.626Z,98934.62
2018-01-06T05:07:16.864Z,98937.89
2018-01-06T05:10:18.821Z,98936.42
2018-01-06T05:13:20.797Z,98944.03
2018-01-06T05:16:22.000Z,98969.95
2018-01-06T05:19:23.271Z,98958.22
2018-01-06T05:22:24.583Z,98948.49
2018-01-06T05:25:25.814Z,98957.37
2018-01-06T05:28:27.064Z,98967.77
2018-01-06T05:31:28.289Z,98969.94
2018-01-06T05:34:29.540Z,98987.73
2018-01-06T05:37:30.757Z,98987.72
2018-01-06T05:40:32.018Z,98989.27
2018-01-06T05:43:33.982Z,98974.76
2018-01-06T05:46:35.977Z,98986.73
2018-01-06T05:49:37.263Z,98980.61
2018-01-06T05:52:38.512Z,98991.59
2018-01-06T05:55:39.769Z,98997.49
2018-01-06T05:58:41.016Z,99002.42
2018-01-06T06:01:42.351Z,98999.37
2018-01-06T06:04:43.623Z,99001.17
2018-01-06T06:07:44.864Z,98992.77
2018-01-06T06:10:46.102Z,99000.88
2018-01-06T06:13:54.409Z,99009.14
2018-01-06T06:16:55.673Z,99006.38
2018-01-06T06:19:56.885Z,99004.48
2018-01-06T06:22:58.501Z,99003.59
2018-01-06T06:26:00.475Z,99002.23
2018-01-06T06:29:01.762Z,99019.05
2018-01-06T06:32:03.000Z,99021.72
2018-01-06T06:35:04.532Z,99013.83
2018-01-06T06:38:05.748Z,99019.55
2018-01-06T06:41:07.727Z,99023.80
2018-01-06T06:44:09.757Z,99029.22
2018-01-06T06:47:11.060Z,99023.57
2018-01-06T06:50:12.319Z,99030.45
2018-01-06T06:53:13.591Z,99041.09
2018-01-06T06:56:14.892Z,99039.31
2018-01-06T06:59:16.912Z,99030.97
2018-01-06T07:02:18.152Z,99036.99
2018-01-06T07:05:19.408Z,99053.72
2018-01-06T07:08:20.637Z,99052.20
2018-01-06T07:11:21.888Z,99054.85
2018-01-06T07:14:23.606Z,99062.01
2018-01-06T07:17:24.842Z,99069.16
2018-01-06T07:20:26.849Z,99085.02
2018-01-06T07:23:28.083Z,99079.23
2018-01-06T07:26:29.345Z,99077.86
2018-01-06T07:29:30.560Z,99067.55
2018-01-06T07:32:32.537Z,99066.95
2018-01-06T07:35:33.861Z,99074.28
2018-01-06T07:38:35.841Z,99077.65
2018-01-06T07:41:37.844Z,99081.64
2018-01-06T07:44:39.095Z,99080.71
2018-01-06T07:47:40.344Z,99085.56
2018-01-06T07:50:41.561Z,99093.28
2018-01-06T07:53:42.858Z,99095.75
2018-01-06T07:56:44.097Z,99096.97
2018-01-06T07:59:45.368Z,99113.32
2018-01-06T08:02:46.643Z,99098.17
2018-01-06T08:05:48.605Z,99104.91
2018-01-06T08:08:50.620Z,99115.23
2018-01-06T08:11:51.824Z,99124.45
2018-01-06T08:14:53.088Z,99123.71
2018-01-06T08:17:54.341Z,99119.75
2018-01-06T08:20:55.599Z,99124.19
2018-01-06T08:23:58.143Z,99134.56
2018-01-06T08:26:59.905Z,99131.06
2018-01-06T08:30:02.195Z,99140.70
2018-01-06T08:33:10.680Z,99146.99
2018-01-06T08:36:12.279Z,99155.87
2018-01-06T08:39:13.674Z,99161.28
2018-01-06T08:42:15.193Z,99161.88
2018-01-06T08:45:16.791Z,99170.14
2018-01-06T08:48:18.177Z,99166.19
2018-01-06T08:51:19.472Z,99163.30
2018-01-06T08:54:20.727Z,99162.63
2018-01-06T08:57:22.784Z,99166.30
2018-01-06T09:00:24.046Z,99182.44
2018-01-06T09:03:25.405Z,99189.41
2018-01-06T09:06:26.620Z,99191.34
2018-01-06T09:09:27.882Z,99200.67
2018-01-06T09:12:29.125Z,99205.57
2018-01-06T09:15:30.384Z,99208.56
2018-01-06T09:18:31.624Z,99213.17
2018-01-06T09:21:32.888Z,99215.39
2018-01-06T09:24:34.903Z,99222.97
2018-01-06T09:27:36.153Z,99230.70
2018-01-06T09:30:37.424Z,99229.53
2018-01-06T09:33:38.636Z,99232.30
2018-01-06T09:36:39.931Z,99241.83
2018-01-06T09:39:41.151Z,99243.05
2018-01-06T09:42:42.437Z,99242.56
2018-01-06T09:45:43.724Z,99237.72
2018-01-06T09:48:51.964Z,99246.95
2018-01-06T09:51:53.229Z,99246.50
2018-01-06T09:54:54.493Z,99247.64
2018-01-06T09:57:55.765Z,99255.15
2018-01-06T10:00:57.756Z,99264.24
2018-01-06T10:03:59.016Z,99260.12
2018-01-06T10:07:00.280Z,99261.42
2018-01-06T10:10:01.556Z,99251.78
2018-01-06T10:13:02.781Z,99253.94
2018-01-06T10:16:04.025Z,99271.53
2018-01-06T10:19:05.245Z,99269.72
2018-01-06T10:22:06.497Z,99281.76
2018-01-06T10:25:07.780Z,99279.54
2018-01-06T10:28:09.021Z,99268.38
2018-01-06T10:31:10.291Z,99282.59
2018-01-06T10:34:11.519Z,99275.19
2018-01-06T10:37:12.796Z,99267.49
2018-01-06T10:40:14.784Z,99262.73
2018-01-06T10:43:19.076Z,99274.67
2018-01-06T10:46:21.119Z,99275.77
2018-01-06T10:49:22.322Z,99269.09
2018-01-06T10:52:23.572Z,99282.26
2018-01-06T10:55:24.807Z,99275.50
2018-01-06T10:58:26.090Z,99278.77
2018-01-06T11:01:33.381Z,99288.55
2018-01-06T11:04:34.613Z,99289.00
2018-01-06T11:07:35.880Z,99287.16
2018-01-06T11:10:37.124Z,99295.48
2018-01-06T11:13:38.408Z,99303.83
2018-01-06T11:16:39.657Z,99302.66
2018-01-06T11:19:40.955Z,99296.06
2018-01-06T11:22:42.177Z,99302.15
2018-01-06T11:25:43.437Z,99311.64
2018-01-06T11:28:44.699Z,99305.91
2018-01-06T11:31:45.976Z,99313.41
2018-01-06T11:34:47.242Z,99318.38
2018-01-06T11:37:48.480Z,99315.75
2018-01-06T11:40:49.720Z,99318.73
2018-01-06T11:43:50.952Z,99313.80
2018-01-06T11:46:52.953Z,99323.91
2018-01-06T11:49:54.209Z,99324.70
2018-01-06T11:52:56.182Z,99320.13
2018-01-06T11:55:58.189Z,99322.14
2018-01-06T11:58:59.424Z,99314.39
2018-01-06T12:02:00.714Z,99321.25
2018-01-06T12:05:02.681Z,99327.86
2018-01-06T12:08:03.934Z,99322.50
2018-01-06T12:11:05.149Z,99325.30
2018-01-06T12:14:06.397Z,99331.20
2018-01-06T12:17:07.650Z,99322.66
2018-01-06T12:20:08.988Z,99327.88
2018-01-06T12:23:10.279Z,99335.26
2018-01-06T12:26:11.504Z,99324.19
2018-01-06T12:29:12.780Z,99330.83
2018-01-06T12:32:14.744Z,99340.39
2018-01-06T12:35:15.981Z,99333.64
2018-01-06T12:38:17.241Z,99338.09
2018-01-06T12:41:19.236Z,99351.88
2018-01-06T12:44:20.498Z,99347.36
2018-01-06T12:47:21.800Z,99347.71
2018-01-06T12:50:23.044Z,99349.57
2018-01-06T12:53:24.277Z,99350.52
2018-01-06T12:56:25.532Z,99360.26
2018-01-06T12:59:26.812Z,99357.58
2018-01-06T13:02:28.043Z,99353.10
2018-01-06T13:05:30.056Z,99360.38
2018-01-06T13:08:31.308Z,99356.85
2018-01-06T13:11:32.568Z,99353.73
2018-01-06T13:14:33.804Z,99370.45
2018-01-06T13:17:35.053Z,99371.23
2018-01-06T13:20:36.273Z,99374.24
2018-01-06T13:23:37.563Z,99377.83
2018-01-06T13:26:38.858Z,99380.56
2018-01-06T13:29:40.081Z,99378.85
2018-01-06T13:32:41.337Z,99388.94
2018-01-06T13:35:42.608Z,99383.49
2018-01-06T13:38:43.875Z,99380.89
2018-01-06T13:41:45.121Z,99387.11
2018-01-06T13:44:46.352Z,99389.23
2018-01-06T13:47:47.604Z,99390.20
2018-01-06T13:50:49.824Z,99401.16
2018-01-06T13:53:51.072Z,99398.64
2018-01-06T13:56:52.313Z,99402.23
2018-01-06T14:00:00.660Z,99407.47
2018-01-06T14:03:02.646Z,99417.17
2018-01-06T14:06:03.908Z,99422.95
2018-01-06T14:09:05.165Z,99431.89
2018-01-06T14:12:06.802Z,99441.12
2018-01-06T14:15:08.092Z,99438.58
2018-01-06T14:18:09.888Z,99444.86
2018-01-06T14:21:11.231Z,99446.59
2018-01-06T14:24:12.605Z,99447.52
2018-01-06T14:27:14.606Z,99463.80
2018-01-06T14:30:15.872Z,99465.00
2018-01-06T14:33:17.120Z,99462.94
2018-01-06T14:36:18.416Z,99470.86
2018-01-06T14:39:20.126Z,99474.47
2018-01-06T14:42:21.393Z,99475.37
2018-01-06T14:45:22.643Z,99481.14
2018-01-06T14:48:23.908Z,99481.27
2018-01-06T14:51:25.870Z,99485.41
2018-01-06T14:54:28.120Z,99487.45
2018-01-06T14:57:30.181Z,99494.26
2018-01-06T15:00:31.447Z,99504.91
2018-01-06T15:03:32.677Z,99494.69
2018-01-06T15:06:33.908Z,99491.70
2018-01-06T15:09:35.183Z,99499.94
2018-01-06T15:12:36.479Z,99495.72
2018-01-06T15:15:37.712Z,99493.84
2018-01-06T15:18:39.783Z,99493.42
2018-01-06T15:21:41.001Z,99504.77
2018-01-06T15:24:42.272Z,99503.70
2018-01-06T15:27:44.300Z,99507.58
2018-01-06T15:30:45.569Z,99515.77
2018-01-06T15:33:46.816Z,99503.73
2018-01-06T15:36:48.096Z,99510.73
2018-01-06T15:39:49.388Z,99517.04
2018-01-06T15:42:50.662Z,99525.48
2018-01-06T15:45:51.988Z,99532.39
2018-01-06T15:48:53.695Z,99544.91
2018-01-06T15:51:54.945Z,99542.45
2018-01-06T15:54:56.164Z,99547.17
2018-01-06T15:57:57.512Z,99561.36
2018-01-06T16:00:58.750Z,99563.17
2018-01-06T16:04:00.014Z,99564.19
2018-01-06T16:07:02.047Z,99561.41
2018-01-06T16:10:03.332Z,99565.21
2018-01-06T16:13:05.324Z,99558.46
2018-01-06T16:16:07.308Z,99571.52
2018-01-06T16:19:08.675Z,99572.17
2018-01-06T16:22:10.098Z,99580.91
2018-01-06T16:25:11.428Z,99588.18
2018-01-06T16:28:13.640Z,99586.21
2018-01-06T16:31:14.881Z,99588.08
2018-01-06T16:34:16.640Z,99597.97
2018-01-06T16:37:17.868Z,99597.61
2018-01-06T16:40:19.269Z,99603.03
2018-01-06T16:43:21.317Z,99599.11
2018-01-06T16:46:22.777Z,99604.80
2018-01-06T16:49:24.043Z,99606.34
2018-01-06T16:52:25.448Z,99603.28
2018-01-06T16:55:26.733Z,99607.26
2018-01-06T16:58:28.720Z,99613.07
2018-01-06T17:01:29.993Z,99626.83
2018-01-06T17:04:32.276Z,99625.22
2018-01-06T17:07:33.547Z,99645.76
2018-01-06T17:10:34.961Z,99654.12
2018-01-06T17:13:36.204Z,99666.73
2018-01-06T17:16:39.270Z,99666.53
2018-01-06T17:19:41.458Z,99673.37
2018-01-06T17:22:43.992Z,99671.25
2018-01-06T17:25:45.332Z,99672.46
2018-01-06T17:28:46.576Z,99685.56
2018-01-06T17:31:48.109Z,99695.88
2018-01-06T17:34:49.365Z,99697.11
2018-01-06T17:37:50.607Z,99683.45
2018-01-06T17:40:52.439Z,99679.03
2018-01-06T17:43:53.789Z,99679.05
2018-01-06T17:46:55.827Z,99698.27
2018-01-06T17:49:57.701Z,99692.52
2018-01-06T17:52:59.468Z,99701.19
2018-01-06T17:56:00.877Z,99704.91
2018-01-06T17:59:03.707Z,99698.83
2018-01-06T18:02:06.781Z,99712.96
2018-01-06T18:05:08.983Z,99726.08
2018-01-06T18:08:12.871Z,99724.27
2018-01-06T18:11:15.558Z,99740.00
2018-01-06T18:14:18.001Z,99742.17
2018-01-06T18:17:19.324Z,99757.58
2018-01-06T18:20:20.711Z,99762.66
2018-01-06T18:23:22.821Z,99773.28
2018-01-06T18:26:24.769Z,99772.53
2018-01-06T18:29:27.641Z,99778.02
2018-01-06T18:32:29.430Z,99780.92
2018-01-06T18:35:31.732Z,99780.34
2018-01-06T18:38:33.724Z,99786.36
2018-01-06T18:41:35.001Z,99782.19
2018-01-06T18:44:37.016Z,99805.38
2018-01-06T18:47:38.260Z,99808.03
2018-01-06T18:50:39.500Z,99817.39
2018-01-06T18:53:40.709Z,99820.55
2018-01-06T18:56:41.992Z,99821.92
2018-01-06T18:59:43.444Z,99826.44
2018-01-06T19:02:44.839Z,99839.83
2018-01-06T19:05:46.870Z,99851.70
2018-01-06T19:08:49.272Z,99856.64
2018-01-06T19:11:50.583Z,99858.84
2018-01-06T19:14:51.967Z,99861.60
2018-01-06T19:17:53.877Z,99865.47
2018-01-06T19:20:55.312Z,99862.66
2018-01-06T19:23:56.542Z,99864.44
2018-01-06T19:26:58.248Z,99851.00
2018-01-06T19:29:59.526Z,99881.19
2018-01-06T19:33:02.251Z,99871.94
2018-01-06T19:36:04.824Z,99888.34
2018-01-06T19:39:06.197Z,99880.66
2018-01-06T19:42:08.468Z,99877.95
2018-01-06T19:45:10.478Z,99892.61
2018-01-06T19:48:11.737Z,99899.67
2018-01-06T19:51:12.968Z,99897.41
2018-01-06T19:54:14.845Z,99917.54
2018-01-06T19:57:16.192Z,99914.42
2018-01-06T20:00:19.008Z,99919.95
2018-01-06T20:03:21.630Z,99925.21
2018-01-06T20:06:23.501Z,99929.67
2018-01-06T20:09:25.349Z,99940.02
2018-01-06T20:12:27.510Z,99947.16
2018-01-06T20:15:30.019Z,99952.37
2018-01-06T20:18:32.630Z,99949.98
2018-01-06T20:21:34.748Z,99965.19
2018-01-06T20:24:36.075Z,99979.98
2018-01-06T20:27:38.203Z,99981.20
2018-01-06T20:30:39.953Z,99974.13
2018-01-06T20:33:41.338Z,99989.28
2018-01-06T20:36:42.645Z,99990.84
2018-01-06T20:39:44.664Z,99992.36
2018-01-06T20:42:47.246Z,99995.32
2018-01-06T20:45:48.853Z,100002.89
2018-01-06T20:48:50.137Z,100001.00
2018-01-06T20:51:52.109Z,99998.50
2018-01-06T20:54:54.271Z,100015.70
2018-01-06T20:57:56.530Z,100017.67
2018-01-06T21:00:58.625Z,100010.73
2018-01-06T21:04:01.138Z,100015.12
2018-01-06T21:07:03.721Z,100011.27
2018-01-06T21:10:05.311Z,100021.50
2018-01-06T21:13:07.420Z,100020.56
2018-01-06T21:16:08.678Z,100026.02
2018-01-06T21:19:09.913Z,100015.31
2018-01-06T21:22:11.661Z,100024.08
2018-01-06T21:25:13.639Z,100030.50
2018-01-06T21:28:14.932Z,100046.98
2018-01-06T21:31:17.645Z,100035.16
2018-01-06T21:34:19.059Z,100054.91
2018-01-06T21:37:20.318Z,100057.29
2018-01-06T21:40:22.261Z,100057.39
2018-01-06T21:43:23.649Z,100062.59
2018-01-06T21:46:25.971Z,100076.09
2018-01-06T21:49:27.225Z,100077.52
2018-01-06T21:52:28.536Z,100081.19
2018-01-06T21:55:30.569Z,100076.68
2018-01-06T21:58:31.835Z,100082.25
2018-01-06T22:01:33.620Z,100080.20
2018-01-06T22:04:34.861Z,100092.97
2018-01-06T22:07:36.853Z,100087.66
2018-01-06T22:10:38.583Z,100096.88
2018-01-06T22:13:39.862Z,100101.84
2018-01-06T22:16:41.113Z,100108.97
2018-01-06T22:19:42.458Z,100114.27
2018-01-06T22:22:43.705Z,100119.72
2018-01-06T22:25:45.206Z,100120.20
2018-01-06T22:28:46.468Z,100131.00
2018-01-06T22:31:47.678Z,100139.51
2018-01-06T22:34:48.917Z,100135.39
2018-01-06T22:37:50.155Z,100141.91
2018-01-06T22:40:51.436Z,100148.40
2018-01-06T22:43:53.396Z,100147.14
2018-01-06T22:46:54.653Z,100140.15
2018-01-06T22:49:55.928Z,100152.13
2018-01-06T22:52:57.919Z,100153.17
2018-01-06T22:55:59.166Z,100156.08
2018-01-06T22:59:00.466Z,100156.45
2018-01-06T23:02:01.815Z,100169.74
2018-01-06T23:05:03.065Z,100163.70
2018-01-06T23:08:04.300Z,100176.99
2018-01-06T23:11:05.564Z,100173.78
2018-01-06T23:14:06.800Z,100181.10
2018-01-06T23:17:08.049Z,100178.58
2018-01-06T23:20:09.292Z,100189.84
2018-01-06T23:23:10.536Z,100191.52
2018-01-06T23:26:11.746Z,100193.48
2018-01-06T23:29:13.032Z,100199.58
2018-01-06T23:32:14.277Z,100198.75
2018-01-06T23:35:15.498Z,100201.25
2018-01-06T23:38:16.839Z,100209.69
2018-01-06T23:41:18.036Z,100211.66
2018-01-06T23:44:19.293Z,100212.89
2018-01-06T23:47:20.533Z,100214.37
2018-01-06T23:50:21.759Z,100205.59
2018-01-06T23:53:23.029Z,100206.87
2018-01-06T23:56:24.270Z,100218.75
2018-01-06T23:59:25.540Z,100218.02
